フォークランド諸島 の空港の天気 - METARとTAF

マウント・プレザント空軍基地 ( EGYP / MPN ) - フォークランド諸島 フォークランド諸島
飛行場実況気象(Metar)
観測時間01/23 00:50 FKST (01/23 03:50 UTC)
風向・風速北東 3m/s
視程10km以上
天気現象
なし
気温7℃
湿度93%
気圧998hPa
METAREGYP 230350Z 05006KT CAVOK 07/06 Q0998 BLU
過去の天気等 Google飛行場航空写真 Wunderground天気予報

過去48時間のMETAR

飛行場予報(TAF)
発表時間: 1/22 22:08 FKST (1/23 01:08 UTC)
予報対象時間: 23日0時 FKST ~ 23日18時 FKST
風向・風速東南東 4m/s
視程10km以上
全天の4割程度の雲 雲底高度 910m
23日5時 FKST ~ 23日13時 FKST に 確率 40% で一時的に
視程7,000m
天気現象
全天の4割程度の雲 雲底高度 300m
23日13時 FKST ~ 23日18時 FKST に 確率 30% で一時的に
視程7,000m
天気現象しゅう雨
全天の4割程度の雲 雲底高度 670m
TAF EGYP 230108Z 2303/2321 12007KT 9999 SCT030
PROB40 TEMPO 2308/2316 7000 RA SCT010
PROB30 TEMPO 2316/2321 7000 SHRA SCT022